Lake Holcombe, Wisconsin
Current Conditions -  °F | °C
As of 7:35 PM on Monday 24 Nov 2014 (Local Time) from KY23 Reporting Station
Overcast Overcast  
Wind Chill: 12°   Ceiling: 1900
Heat Index: 22°   Visibility: 10mi
Dew Point: 16°   Wind: 8mph
Humidity: 79%   Direction: 300°WNW
Pressure: 29.67"   Gusts: 17mph
Location:  45.2521°N, 91.2394°W
Report Text: KY23 250135Z AUTO 30007G15KT 240V360 10SM OVC019 M06/M09 A2967 RMK AO2 T10571088
Loading
Personal Weather Stations






























Interactive Weather Map New forecast layout! Learn more

10-Day Weather Forecast

Advertisements
Track Severe Weather on mobile